sensor_id;sensor_type;location;lat;lon;timestamp;P1;durP1;ratioP1;P2;durP2;ratioP2
5722;SDS011;2886;49.722;8.612;2023-03-31T00:00:50;7.80;;;1.90;;
5722;SDS011;2886;49.722;8.612;2023-03-31T00:03:17;6.17;;;1.90;;
5722;SDS011;2886;49.722;8.612;2023-03-31T00:06:04;7.80;;;1.70;;
5722;SDS011;2886;49.722;8.612;2023-03-31T00:08:30;2.20;;;1.27;;
5722;SDS011;2886;49.722;8.612;2023-03-31T00:11:00;5.80;;;1.30;;
5722;SDS011;2886;49.722;8.612;2023-03-31T00:13:28;9.10;;;1.93;;
5722;SDS011;2886;49.722;8.612;2023-03-31T00:15:55;5.17;;;1.53;;
5722;SDS011;2886;49.722;8.612;2023-03-31T00:18:22;3.03;;;1.33;;
5722;SDS011;2886;49.722;8.612;2023-03-31T00:20:50;1.43;;;1.30;;
5722;SDS011;2886;49.722;8.612;2023-03-31T00:23:17;4.60;;;1.80;;
5722;SDS011;2886;49.722;8.612;2023-03-31T00:25:53;6.13;;;1.70;;
5722;SDS011;2886;49.722;8.612;2023-03-31T00:28:19;5.10;;;1.33;;
5722;SDS011;2886;49.722;8.612;2023-03-31T00:30:45;6.00;;;1.87;;
5722;SDS011;2886;49.722;8.612;2023-03-31T00:33:12;3.03;;;1.33;;
5722;SDS011;2886;49.722;8.612;2023-03-31T00:35:38;6.60;;;1.60;;
5722;SDS011;2886;49.722;8.612;2023-03-31T00:38:04;7.20;;;1.83;;
5722;SDS011;2886;49.722;8.612;2023-03-31T00:40:33;3.40;;;1.13;;
5722;SDS011;2886;49.722;8.612;2023-03-31T00:42:59;3.53;;;1.23;;
5722;SDS011;2886;49.722;8.612;2023-03-31T00:45:26;5.93;;;1.67;;
5722;SDS011;2886;49.722;8.612;2023-03-31T00:50:24;8.20;;;1.90;;
5722;SDS011;2886;49.722;8.612;2023-03-31T00:53:00;5.47;;;1.53;;
5722;SDS011;2886;49.722;8.612;2023-03-31T00:55:32;3.00;;;1.73;;
5722;SDS011;2886;49.722;8.612;2023-03-31T00:58:01;8.77;;;2.10;;
5722;SDS011;2886;49.722;8.612;2023-03-31T01:00:30;4.03;;;1.40;;
5722;SDS011;2886;49.722;8.612;2023-03-31T01:02:57;8.00;;;1.70;;
5722;SDS011;2886;49.722;8.612;2023-03-31T01:05:26;4.23;;;1.60;;
5722;SDS011;2886;49.722;8.612;2023-03-31T01:07:56;5.13;;;1.73;;
5722;SDS011;2886;49.722;8.612;2023-03-31T01:10:23;4.60;;;1.90;;
5722;SDS011;2886;49.722;8.612;2023-03-31T01:12:50;4.27;;;1.40;;
5722;SDS011;2886;49.722;8.612;2023-03-31T01:15:18;8.50;;;1.87;;
5722;SDS011;2886;49.722;8.612;2023-03-31T01:17:44;6.20;;;1.87;;
5722;SDS011;2886;49.722;8.612;2023-03-31T01:45:58;4.60;;;2.20;;
5722;SDS011;2886;49.722;8.612;2023-03-31T01:48:34;6.27;;;1.73;;
5722;SDS011;2886;49.722;8.612;2023-03-31T01:51:18;4.83;;;1.53;;
5722;SDS011;2886;49.722;8.612;2023-03-31T01:54:12;6.17;;;1.57;;
5722;SDS011;2886;49.722;8.612;2023-03-31T01:57:03;3.10;;;1.80;;
5722;SDS011;2886;49.722;8.612;2023-03-31T02:02:29;3.53;;;1.70;;
5722;SDS011;2886;49.722;8.612;2023-03-31T02:05:11;9.33;;;1.90;;
5722;SDS011;2886;49.722;8.612;2023-03-31T02:07:48;5.20;;;1.90;;
5722;SDS011;2886;49.722;8.612;2023-03-31T02:10:19;9.63;;;2.13;;
5722;SDS011;2886;49.722;8.612;2023-03-31T02:12:46;7.47;;;1.80;;
5722;SDS011;2886;49.722;8.612;2023-03-31T02:15:15;3.93;;;1.73;;
5722;SDS011;2886;49.722;8.612;2023-03-31T02:17:46;5.93;;;1.70;;
5722;SDS011;2886;49.722;8.612;2023-03-31T02:20:16;4.33;;;1.77;;
5722;SDS011;2886;49.722;8.612;2023-03-31T02:22:53;3.67;;;1.80;;
5722;SDS011;2886;49.722;8.612;2023-03-31T02:25:35;3.40;;;1.90;;
5722;SDS011;2886;49.722;8.612;2023-03-31T02:28:08;2.23;;;1.40;;
5722;SDS011;2886;49.722;8.612;2023-03-31T02:30:42;8.30;;;1.63;;
5722;SDS011;2886;49.722;8.612;2023-03-31T02:33:15;4.63;;;1.67;;
5722;SDS011;2886;49.722;8.612;2023-03-31T02:35:41;5.47;;;1.80;;
5722;SDS011;2886;49.722;8.612;2023-03-31T02:38:06;5.47;;;1.60;;
5722;SDS011;2886;49.722;8.612;2023-03-31T02:40:32;8.27;;;2.10;;
5722;SDS011;2886;49.722;8.612;2023-03-31T02:42:58;4.47;;;1.80;;
5722;SDS011;2886;49.722;8.612;2023-03-31T02:45:44;6.50;;;1.77;;
5722;SDS011;2886;49.722;8.612;2023-03-31T02:48:44;7.13;;;1.80;;
5722;SDS011;2886;49.722;8.612;2023-03-31T02:54:27;6.73;;;2.07;;
5722;SDS011;2886;49.722;8.612;2023-03-31T03:00:23;11.93;;;1.63;;
5722;SDS011;2886;49.722;8.612;2023-03-31T03:05:59;10.20;;;1.60;;
5722;SDS011;2886;49.722;8.612;2023-03-31T03:14:58;3.67;;;2.07;;
5722;SDS011;2886;49.722;8.612;2023-03-31T03:17:44;9.97;;;1.90;;
5722;SDS011;2886;49.722;8.612;2023-03-31T03:20:12;12.63;;;1.80;;
5722;SDS011;2886;49.722;8.612;2023-03-31T03:22:40;11.73;;;1.97;;
5722;SDS011;2886;49.722;8.612;2023-03-31T03:25:07;7.80;;;1.40;;
5722;SDS011;2886;49.722;8.612;2023-03-31T03:27:36;5.50;;;1.30;;
5722;SDS011;2886;49.722;8.612;2023-03-31T03:30:03;8.67;;;1.90;;
5722;SDS011;2886;49.722;8.612;2023-03-31T03:32:30;4.23;;;1.50;;
5722;SDS011;2886;49.722;8.612;2023-03-31T03:34:58;7.10;;;2.17;;
5722;SDS011;2886;49.722;8.612;2023-03-31T03:37:28;6.00;;;1.87;;
5722;SDS011;2886;49.722;8.612;2023-03-31T03:39:54;4.20;;;1.93;;
5722;SDS011;2886;49.722;8.612;2023-03-31T03:42:20;17.87;;;1.90;;
5722;SDS011;2886;49.722;8.612;2023-03-31T03:44:46;2.00;;;1.33;;
5722;SDS011;2886;49.722;8.612;2023-03-31T03:47:12;4.93;;;1.60;;
5722;SDS011;2886;49.722;8.612;2023-03-31T03:49:38;6.53;;;2.07;;
5722;SDS011;2886;49.722;8.612;2023-03-31T03:52:04;2.90;;;1.57;;
5722;SDS011;2886;49.722;8.612;2023-03-31T03:54:30;5.07;;;2.17;;
5722;SDS011;2886;49.722;8.612;2023-03-31T03:56:56;2.40;;;1.53;;
5722;SDS011;2886;49.722;8.612;2023-03-31T03:59:22;5.33;;;1.97;;
5722;SDS011;2886;49.722;8.612;2023-03-31T04:01:48;5.50;;;1.60;;
5722;SDS011;2886;49.722;8.612;2023-03-31T04:04:14;4.70;;;1.67;;
5722;SDS011;2886;49.722;8.612;2023-03-31T04:06:40;5.53;;;1.60;;
5722;SDS011;2886;49.722;8.612;2023-03-31T04:09:05;6.60;;;1.80;;
5722;SDS011;2886;49.722;8.612;2023-03-31T04:11:31;5.90;;;1.43;;
5722;SDS011;2886;49.722;8.612;2023-03-31T04:13:57;7.33;;;1.40;;
5722;SDS011;2886;49.722;8.612;2023-03-31T04:16:23;4.17;;;1.73;;
5722;SDS011;2886;49.722;8.612;2023-03-31T04:18:49;4.53;;;1.40;;
5722;SDS011;2886;49.722;8.612;2023-03-31T04:21:17;2.70;;;1.70;;
5722;SDS011;2886;49.722;8.612;2023-03-31T04:23:52;2.87;;;1.90;;
5722;SDS011;2886;49.722;8.612;2023-03-31T04:26:32;4.13;;;1.63;;
5722;SDS011;2886;49.722;8.612;2023-03-31T04:29:11;3.43;;;1.27;;
5722;SDS011;2886;49.722;8.612;2023-03-31T04:31:38;9.30;;;1.40;;
5722;SDS011;2886;49.722;8.612;2023-03-31T04:34:07;3.07;;;1.23;;
5722;SDS011;2886;49.722;8.612;2023-03-31T04:36:37;3.60;;;1.30;;
5722;SDS011;2886;49.722;8.612;2023-03-31T04:39:06;8.03;;;1.20;;
5722;SDS011;2886;49.722;8.612;2023-03-31T04:41:34;3.00;;;1.60;;
5722;SDS011;2886;49.722;8.612;2023-03-31T04:44:01;3.60;;;1.27;;
5722;SDS011;2886;49.722;8.612;2023-03-31T04:46:27;6.50;;;1.87;;
5722;SDS011;2886;49.722;8.612;2023-03-31T04:48:52;3.07;;;1.20;;
5722;SDS011;2886;49.722;8.612;2023-03-31T04:51:18;4.20;;;1.50;;
5722;SDS011;2886;49.722;8.612;2023-03-31T04:53:44;2.80;;;1.60;;
5722;SDS011;2886;49.722;8.612;2023-03-31T04:56:10;5.23;;;2.20;;
5722;SDS011;2886;49.722;8.612;2023-03-31T04:58:36;2.70;;;1.50;;
5722;SDS011;2886;49.722;8.612;2023-03-31T05:01:02;6.90;;;2.10;;
5722;SDS011;2886;49.722;8.612;2023-03-31T05:03:32;6.40;;;1.73;;
5722;SDS011;2886;49.722;8.612;2023-03-31T05:05:58;9.20;;;2.00;;
5722;SDS011;2886;49.722;8.612;2023-03-31T05:08:30;8.87;;;2.43;;
5722;SDS011;2886;49.722;8.612;2023-03-31T05:10:56;4.93;;;1.80;;
5722;SDS011;2886;49.722;8.612;2023-03-31T05:13:21;11.03;;;1.93;;
5722;SDS011;2886;49.722;8.612;2023-03-31T05:15:47;7.30;;;2.27;;
5722;SDS011;2886;49.722;8.612;2023-03-31T05:18:14;4.23;;;1.53;;
5722;SDS011;2886;49.722;8.612;2023-03-31T05:20:41;6.10;;;1.57;;
5722;SDS011;2886;49.722;8.612;2023-03-31T05:23:07;5.53;;;1.73;;
5722;SDS011;2886;49.722;8.612;2023-03-31T05:25:33;4.77;;;1.40;;
5722;SDS011;2886;49.722;8.612;2023-03-31T05:27:59;5.33;;;1.60;;
5722;SDS011;2886;49.722;8.612;2023-03-31T05:30:25;3.23;;;1.87;;
5722;SDS011;2886;49.722;8.612;2023-03-31T05:32:52;3.90;;;1.50;;
5722;SDS011;2886;49.722;8.612;2023-03-31T05:35:17;7.10;;;1.67;;
5722;SDS011;2886;49.722;8.612;2023-03-31T05:37:43;2.70;;;1.50;;
5722;SDS011;2886;49.722;8.612;2023-03-31T05:40:09;6.77;;;1.77;;
5722;SDS011;2886;49.722;8.612;2023-03-31T05:42:35;3.67;;;1.80;;
5722;SDS011;2886;49.722;8.612;2023-03-31T05:45:02;5.93;;;1.70;;
5722;SDS011;2886;49.722;8.612;2023-03-31T05:47:28;4.57;;;2.03;;
5722;SDS011;2886;49.722;8.612;2023-03-31T05:49:55;5.97;;;2.00;;
5722;SDS011;2886;49.722;8.612;2023-03-31T05:52:21;5.90;;;1.87;;
5722;SDS011;2886;49.722;8.612;2023-03-31T05:54:46;5.10;;;2.10;;
5722;SDS011;2886;49.722;8.612;2023-03-31T05:57:12;2.93;;;2.03;;
5722;SDS011;2886;49.722;8.612;2023-03-31T05:59:37;9.87;;;2.73;;
5722;SDS011;2886;49.722;8.612;2023-03-31T06:02:04;7.73;;;2.40;;
5722;SDS011;2886;49.722;8.612;2023-03-31T06:04:30;4.03;;;1.90;;
5722;SDS011;2886;49.722;8.612;2023-03-31T06:06:56;4.87;;;2.43;;
5722;SDS011;2886;49.722;8.612;2023-03-31T06:09:22;5.70;;;2.17;;
5722;SDS011;2886;49.722;8.612;2023-03-31T06:11:48;6.23;;;2.90;;
5722;SDS011;2886;49.722;8.612;2023-03-31T06:14:14;9.87;;;2.90;;
5722;SDS011;2886;49.722;8.612;2023-03-31T06:16:40;6.90;;;2.70;;
5722;SDS011;2886;49.722;8.612;2023-03-31T06:19:05;5.23;;;2.83;;
5722;SDS011;2886;49.722;8.612;2023-03-31T06:21:31;5.00;;;2.60;;
5722;SDS011;2886;49.722;8.612;2023-03-31T06:23:57;7.03;;;2.70;;
5722;SDS011;2886;49.722;8.612;2023-03-31T06:26:24;3.87;;;2.47;;
5722;SDS011;2886;49.722;8.612;2023-03-31T06:28:50;14.57;;;2.87;;
5722;SDS011;2886;49.722;8.612;2023-03-31T06:31:16;6.00;;;2.90;;
5722;SDS011;2886;49.722;8.612;2023-03-31T06:33:43;4.70;;;2.60;;
5722;SDS011;2886;49.722;8.612;2023-03-31T06:36:11;6.53;;;2.83;;
5722;SDS011;2886;49.722;8.612;2023-03-31T06:38:38;9.73;;;3.83;;
5722;SDS011;2886;49.722;8.612;2023-03-31T06:41:07;8.33;;;3.50;;
5722;SDS011;2886;49.722;8.612;2023-03-31T06:43:35;6.60;;;3.57;;
5722;SDS011;2886;49.722;8.612;2023-03-31T06:46:00;10.90;;;3.33;;
5722;SDS011;2886;49.722;8.612;2023-03-31T06:48:26;6.77;;;3.13;;
5722;SDS011;2886;49.722;8.612;2023-03-31T06:50:52;5.50;;;3.57;;
5722;SDS011;2886;49.722;8.612;2023-03-31T06:53:19;12.20;;;3.37;;
5722;SDS011;2886;49.722;8.612;2023-03-31T06:55:46;6.57;;;3.13;;
5722;SDS011;2886;49.722;8.612;2023-03-31T06:58:12;6.40;;;3.60;;
5722;SDS011;2886;49.722;8.612;2023-03-31T07:00:37;6.17;;;4.10;;
5722;SDS011;2886;49.722;8.612;2023-03-31T07:03:04;15.17;;;10.20;;
5722;SDS011;2886;49.722;8.612;2023-03-31T07:05:30;14.27;;;7.30;;
5722;SDS011;2886;49.722;8.612;2023-03-31T07:07:57;13.77;;;7.63;;
5722;SDS011;2886;49.722;8.612;2023-03-31T07:10:24;9.13;;;3.97;;
5722;SDS011;2886;49.722;8.612;2023-03-31T07:12:51;10.07;;;4.50;;
5722;SDS011;2886;49.722;8.612;2023-03-31T07:15:17;8.07;;;3.37;;
5722;SDS011;2886;49.722;8.612;2023-03-31T07:17:43;6.70;;;3.43;;
5722;SDS011;2886;49.722;8.612;2023-03-31T07:20:12;5.63;;;3.63;;
5722;SDS011;2886;49.722;8.612;2023-03-31T07:22:40;9.87;;;3.07;;
5722;SDS011;2886;49.722;8.612;2023-03-31T07:25:07;7.30;;;3.40;;
5722;SDS011;2886;49.722;8.612;2023-03-31T07:27:34;4.67;;;3.30;;
5722;SDS011;2886;49.722;8.612;2023-03-31T07:30:00;6.43;;;3.77;;
5722;SDS011;2886;49.722;8.612;2023-03-31T07:32:26;8.80;;;3.80;;
5722;SDS011;2886;49.722;8.612;2023-03-31T07:34:52;7.73;;;3.77;;
5722;SDS011;2886;49.722;8.612;2023-03-31T07:37:18;5.50;;;3.70;;
5722;SDS011;2886;49.722;8.612;2023-03-31T07:39:43;7.77;;;3.43;;
5722;SDS011;2886;49.722;8.612;2023-03-31T07:42:09;11.30;;;4.07;;
5722;SDS011;2886;49.722;8.612;2023-03-31T07:44:35;7.80;;;4.10;;
5722;SDS011;2886;49.722;8.612;2023-03-31T07:47:01;8.47;;;4.47;;
5722;SDS011;2886;49.722;8.612;2023-03-31T07:49:30;10.47;;;4.07;;
5722;SDS011;2886;49.722;8.612;2023-03-31T07:51:56;5.47;;;2.40;;
5722;SDS011;2886;49.722;8.612;2023-03-31T07:54:22;1.63;;;1.40;;
5722;SDS011;2886;49.722;8.612;2023-03-31T07:56:48;2.40;;;1.33;;
5722;SDS011;2886;49.722;8.612;2023-03-31T07:59:13;2.50;;;1.27;;
5722;SDS011;2886;49.722;8.612;2023-03-31T08:01:39;2.30;;;1.47;;
5722;SDS011;2886;49.722;8.612;2023-03-31T08:04:05;2.60;;;1.30;;
5722;SDS011;2886;49.722;8.612;2023-03-31T08:06:30;2.03;;;1.43;;
5722;SDS011;2886;49.722;8.612;2023-03-31T08:08:56;4.53;;;2.20;;
5722;SDS011;2886;49.722;8.612;2023-03-31T08:11:23;2.00;;;1.40;;
5722;SDS011;2886;49.722;8.612;2023-03-31T08:13:50;3.00;;;1.47;;
5722;SDS011;2886;49.722;8.612;2023-03-31T08:16:16;3.73;;;1.70;;
5722;SDS011;2886;49.722;8.612;2023-03-31T08:18:41;7.70;;;2.00;;
5722;SDS011;2886;49.722;8.612;2023-03-31T08:21:07;2.80;;;2.00;;
5722;SDS011;2886;49.722;8.612;2023-03-31T08:23:36;7.00;;;1.93;;
5722;SDS011;2886;49.722;8.612;2023-03-31T08:26:15;2.53;;;2.03;;
5722;SDS011;2886;49.722;8.612;2023-03-31T08:28:42;4.07;;;2.33;;
5722;SDS011;2886;49.722;8.612;2023-03-31T08:31:08;4.97;;;2.63;;
5722;SDS011;2886;49.722;8.612;2023-03-31T08:33:34;4.93;;;2.80;;
5722;SDS011;2886;49.722;8.612;2023-03-31T08:36:05;7.40;;;3.20;;
5722;SDS011;2886;49.722;8.612;2023-03-31T08:38:34;6.30;;;3.20;;
5722;SDS011;2886;49.722;8.612;2023-03-31T08:41:02;14.33;;;3.83;;
5722;SDS011;2886;49.722;8.612;2023-03-31T08:43:31;8.10;;;4.40;;
5722;SDS011;2886;49.722;8.612;2023-03-31T08:46:01;11.57;;;4.10;;
5722;SDS011;2886;49.722;8.612;2023-03-31T08:48:29;8.40;;;4.67;;
5722;SDS011;2886;49.722;8.612;2023-03-31T08:51:28;8.60;;;4.97;;
5722;SDS011;2886;49.722;8.612;2023-03-31T08:53:57;10.23;;;4.40;;
5722;SDS011;2886;49.722;8.612;2023-03-31T08:56:27;12.23;;;3.50;;
5722;SDS011;2886;49.722;8.612;2023-03-31T08:58:54;11.60;;;3.90;;
5722;SDS011;2886;49.722;8.612;2023-03-31T09:01:29;6.60;;;3.43;;
5722;SDS011;2886;49.722;8.612;2023-03-31T09:04:16;5.90;;;3.37;;
5722;SDS011;2886;49.722;8.612;2023-03-31T09:09:22;10.10;;;2.93;;
5722;SDS011;2886;49.722;8.612;2023-03-31T09:11:57;5.27;;;2.30;;
5722;SDS011;2886;49.722;8.612;2023-03-31T09:22:01;5.23;;;2.20;;
5722;SDS011;2886;49.722;8.612;2023-03-31T09:24:43;2.97;;;2.20;;
5722;SDS011;2886;49.722;8.612;2023-03-31T09:27:13;4.90;;;2.00;;
5722;SDS011;2886;49.722;8.612;2023-03-31T09:29:43;10.20;;;2.30;;
5722;SDS011;2886;49.722;8.612;2023-03-31T09:32:26;4.67;;;2.37;;
5722;SDS011;2886;49.722;8.612;2023-03-31T09:35:36;6.30;;;2.60;;
5722;SDS011;2886;49.722;8.612;2023-03-31T09:37:53;4.70;;;2.93;;
5722;SDS011;2886;49.722;8.612;2023-03-31T09:40:20;8.00;;;3.90;;
5722;SDS011;2886;49.722;8.612;2023-03-31T09:43:04;7.10;;;3.13;;
5722;SDS011;2886;49.722;8.612;2023-03-31T09:45:32;6.80;;;2.50;;
5722;SDS011;2886;49.722;8.612;2023-03-31T09:48:03;5.80;;;2.30;;
5722;SDS011;2886;49.722;8.612;2023-03-31T09:50:39;10.80;;;1.87;;
5722;SDS011;2886;49.722;8.612;2023-03-31T09:53:14;8.73;;;2.17;;
5722;SDS011;2886;49.722;8.612;2023-03-31T09:55:46;3.20;;;1.50;;
5722;SDS011;2886;49.722;8.612;2023-03-31T09:58:16;1.97;;;1.27;;
5722;SDS011;2886;49.722;8.612;2023-03-31T10:00:43;2.30;;;1.40;;
5722;SDS011;2886;49.722;8.612;2023-03-31T10:06:18;1.67;;;1.20;;
5722;SDS011;2886;49.722;8.612;2023-03-31T10:08:53;1.33;;;1.20;;
5722;SDS011;2886;49.722;8.612;2023-03-31T10:11:21;6.13;;;2.40;;
5722;SDS011;2886;49.722;8.612;2023-03-31T10:13:49;1.80;;;1.20;;
5722;SDS011;2886;49.722;8.612;2023-03-31T10:16:32;3.10;;;1.20;;
5722;SDS011;2886;49.722;8.612;2023-03-31T10:21:48;6.87;;;1.67;;
5722;SDS011;2886;49.722;8.612;2023-03-31T10:24:34;6.73;;;1.47;;
5722;SDS011;2886;49.722;8.612;2023-03-31T10:27:20;4.33;;;1.27;;
5722;SDS011;2886;49.722;8.612;2023-03-31T10:29:52;4.67;;;1.70;;
5722;SDS011;2886;49.722;8.612;2023-03-31T10:32:29;3.63;;;1.40;;
5722;SDS011;2886;49.722;8.612;2023-03-31T10:34:58;5.33;;;2.00;;
5722;SDS011;2886;49.722;8.612;2023-03-31T10:37:32;2.93;;;1.60;;
5722;SDS011;2886;49.722;8.612;2023-03-31T10:40:01;3.10;;;1.70;;
5722;SDS011;2886;49.722;8.612;2023-03-31T10:42:31;2.80;;;1.20;;
5722;SDS011;2886;49.722;8.612;2023-03-31T10:45:23;5.83;;;1.97;;
5722;SDS011;2886;49.722;8.612;2023-03-31T10:47:55;5.93;;;1.27;;
5722;SDS011;2886;49.722;8.612;2023-03-31T10:50:26;3.03;;;1.27;;
5722;SDS011;2886;49.722;8.612;2023-03-31T10:52:59;2.97;;;1.23;;
5722;SDS011;2886;49.722;8.612;2023-03-31T10:55:33;3.90;;;1.50;;
5722;SDS011;2886;49.722;8.612;2023-03-31T10:58:11;4.60;;;1.70;;
5722;SDS011;2886;49.722;8.612;2023-03-31T11:07:10;4.20;;;1.47;;
5722;SDS011;2886;49.722;8.612;2023-03-31T11:12:14;6.50;;;1.97;;
5722;SDS011;2886;49.722;8.612;2023-03-31T11:14:58;15.20;;;2.40;;
5722;SDS011;2886;49.722;8.612;2023-03-31T11:26:18;7.37;;;2.50;;
5722;SDS011;2886;49.722;8.612;2023-03-31T11:34:40;9.07;;;2.20;;
5722;SDS011;2886;49.722;8.612;2023-03-31T11:43:11;4.20;;;1.87;;
5722;SDS011;2886;49.722;8.612;2023-03-31T11:45:59;8.83;;;1.93;;
5722;SDS011;2886;49.722;8.612;2023-03-31T11:48:45;4.37;;;1.50;;
5722;SDS011;2886;49.722;8.612;2023-03-31T11:51:19;4.63;;;1.23;;
5722;SDS011;2886;49.722;8.612;2023-03-31T11:53:49;6.93;;;1.20;;
5722;SDS011;2886;49.722;8.612;2023-03-31T11:56:17;3.70;;;1.67;;
5722;SDS011;2886;49.722;8.612;2023-03-31T11:58:52;7.83;;;1.60;;
5722;SDS011;2886;49.722;8.612;2023-03-31T12:12:33;5.07;;;1.70;;
5722;SDS011;2886;49.722;8.612;2023-03-31T12:15:20;5.40;;;1.50;;
5722;SDS011;2886;49.722;8.612;2023-03-31T12:17:56;4.03;;;1.30;;
5722;SDS011;2886;49.722;8.612;2023-03-31T12:20:32;7.13;;;1.90;;
5722;SDS011;2886;49.722;8.612;2023-03-31T12:23:02;3.33;;;1.57;;
5722;SDS011;2886;49.722;8.612;2023-03-31T12:25:40;5.40;;;1.80;;
5722;SDS011;2886;49.722;8.612;2023-03-31T12:28:21;4.67;;;1.60;;
5722;SDS011;2886;49.722;8.612;2023-03-31T12:30:48;5.37;;;1.27;;
5722;SDS011;2886;49.722;8.612;2023-03-31T12:47:04;3.57;;;1.00;;
5722;SDS011;2886;49.722;8.612;2023-03-31T12:49:51;2.10;;;1.03;;
5722;SDS011;2886;49.722;8.612;2023-03-31T13:06:52;2.20;;;1.20;;
5722;SDS011;2886;49.722;8.612;2023-03-31T13:12:21;1.57;;;1.10;;
5722;SDS011;2886;49.722;8.612;2023-03-31T13:14:50;3.30;;;1.00;;
5722;SDS011;2886;49.722;8.612;2023-03-31T13:17:24;4.30;;;1.53;;
5722;SDS011;2886;49.722;8.612;2023-03-31T13:19:54;1.40;;;1.10;;
5722;SDS011;2886;49.722;8.612;2023-03-31T13:22:39;3.23;;;0.90;;
5722;SDS011;2886;49.722;8.612;2023-03-31T13:27:53;2.40;;;0.93;;
5722;SDS011;2886;49.722;8.612;2023-03-31T13:30:43;3.90;;;1.00;;
5722;SDS011;2886;49.722;8.612;2023-03-31T13:36:11;3.23;;;0.90;;
5722;SDS011;2886;49.722;8.612;2023-03-31T13:39:26;0.90;;;0.70;;
5722;SDS011;2886;49.722;8.612;2023-03-31T13:47:30;1.77;;;1.00;;
5722;SDS011;2886;49.722;8.612;2023-03-31T13:52:53;1.70;;;0.83;;
5722;SDS011;2886;49.722;8.612;2023-03-31T13:55:42;4.60;;;1.27;;
5722;SDS011;2886;49.722;8.612;2023-03-31T14:06:37;3.30;;;1.20;;
5722;SDS011;2886;49.722;8.612;2023-03-31T14:09:09;4.27;;;1.07;;
5722;SDS011;2886;49.722;8.612;2023-03-31T14:11:41;3.07;;;1.07;;
5722;SDS011;2886;49.722;8.612;2023-03-31T14:14:13;6.07;;;1.30;;
5722;SDS011;2886;49.722;8.612;2023-03-31T14:16:42;3.60;;;1.30;;
5722;SDS011;2886;49.722;8.612;2023-03-31T14:35:42;4.83;;;1.30;;
5722;SDS011;2886;49.722;8.612;2023-03-31T14:38:18;6.20;;;1.33;;
5722;SDS011;2886;49.722;8.612;2023-03-31T14:40:46;3.80;;;1.03;;
5722;SDS011;2886;49.722;8.612;2023-03-31T14:43:20;4.93;;;1.27;;
5722;SDS011;2886;49.722;8.612;2023-03-31T14:46:03;6.57;;;1.37;;
5722;SDS011;2886;49.722;8.612;2023-03-31T14:48:35;3.93;;;1.10;;
5722;SDS011;2886;49.722;8.612;2023-03-31T14:51:09;3.60;;;1.60;;
5722;SDS011;2886;49.722;8.612;2023-03-31T14:53:35;2.60;;;1.17;;
5722;SDS011;2886;49.722;8.612;2023-03-31T14:56:20;2.87;;;0.97;;
5722;SDS011;2886;49.722;8.612;2023-03-31T14:58:57;2.13;;;1.10;;
5722;SDS011;2886;49.722;8.612;2023-03-31T15:01:24;5.43;;;1.10;;
5722;SDS011;2886;49.722;8.612;2023-03-31T15:03:58;4.90;;;1.43;;
5722;SDS011;2886;49.722;8.612;2023-03-31T15:06:25;3.03;;;1.20;;
5722;SDS011;2886;49.722;8.612;2023-03-31T15:08:54;6.80;;;1.40;;
5722;SDS011;2886;49.722;8.612;2023-03-31T15:11:22;6.83;;;1.53;;
5722;SDS011;2886;49.722;8.612;2023-03-31T15:13:48;2.10;;;1.07;;
5722;SDS011;2886;49.722;8.612;2023-03-31T15:16:20;2.20;;;0.90;;
5722;SDS011;2886;49.722;8.612;2023-03-31T15:21:41;5.20;;;1.33;;
5722;SDS011;2886;49.722;8.612;2023-03-31T15:24:10;3.20;;;1.30;;
5722;SDS011;2886;49.722;8.612;2023-03-31T15:26:42;9.10;;;1.87;;
5722;SDS011;2886;49.722;8.612;2023-03-31T15:31:45;3.37;;;1.23;;
5722;SDS011;2886;49.722;8.612;2023-03-31T15:34:25;2.70;;;1.20;;
5722;SDS011;2886;49.722;8.612;2023-03-31T15:36:57;6.30;;;1.27;;
5722;SDS011;2886;49.722;8.612;2023-03-31T15:39:23;9.97;;;1.53;;
5722;SDS011;2886;49.722;8.612;2023-03-31T15:41:52;2.10;;;1.23;;
5722;SDS011;2886;49.722;8.612;2023-03-31T15:44:29;3.73;;;1.17;;
5722;SDS011;2886;49.722;8.612;2023-03-31T15:47:18;3.40;;;1.40;;
5722;SDS011;2886;49.722;8.612;2023-03-31T15:49:56;2.07;;;0.83;;
5722;SDS011;2886;49.722;8.612;2023-03-31T15:52:28;2.70;;;1.00;;
5722;SDS011;2886;49.722;8.612;2023-03-31T15:54:58;5.80;;;1.27;;
5722;SDS011;2886;49.722;8.612;2023-03-31T15:57:34;4.77;;;1.20;;
5722;SDS011;2886;49.722;8.612;2023-03-31T16:00:00;4.00;;;1.70;;
5722;SDS011;2886;49.722;8.612;2023-03-31T16:02:38;2.50;;;1.30;;
5722;SDS011;2886;49.722;8.612;2023-03-31T16:05:20;7.40;;;1.30;;
5722;SDS011;2886;49.722;8.612;2023-03-31T16:07:52;4.00;;;1.50;;
5722;SDS011;2886;49.722;8.612;2023-03-31T16:10:18;2.87;;;1.20;;
5722;SDS011;2886;49.722;8.612;2023-03-31T16:12:57;3.00;;;1.20;;
5722;SDS011;2886;49.722;8.612;2023-03-31T16:15:33;1.60;;;1.30;;
5722;SDS011;2886;49.722;8.612;2023-03-31T16:18:01;13.60;;;1.93;;
5722;SDS011;2886;49.722;8.612;2023-03-31T16:20:35;2.93;;;1.10;;
5722;SDS011;2886;49.722;8.612;2023-03-31T16:23:37;3.63;;;1.50;;
5722;SDS011;2886;49.722;8.612;2023-03-31T16:25:58;4.10;;;1.60;;
5722;SDS011;2886;49.722;8.612;2023-03-31T16:28:25;5.87;;;1.70;;
5722;SDS011;2886;49.722;8.612;2023-03-31T16:30:52;5.97;;;1.50;;
5722;SDS011;2886;49.722;8.612;2023-03-31T16:33:19;3.13;;;1.50;;
5722;SDS011;2886;49.722;8.612;2023-03-31T16:35:53;7.47;;;2.07;;
5722;SDS011;2886;49.722;8.612;2023-03-31T16:38:26;2.67;;;1.50;;
5722;SDS011;2886;49.722;8.612;2023-03-31T16:40:54;3.70;;;1.70;;
5722;SDS011;2886;49.722;8.612;2023-03-31T16:43:23;5.33;;;1.43;;
5722;SDS011;2886;49.722;8.612;2023-03-31T16:48:20;5.17;;;1.27;;
5722;SDS011;2886;49.722;8.612;2023-03-31T16:50:50;8.57;;;1.50;;
5722;SDS011;2886;49.722;8.612;2023-03-31T16:53:19;7.03;;;1.47;;
5722;SDS011;2886;49.722;8.612;2023-03-31T16:55:47;9.00;;;2.00;;
5722;SDS011;2886;49.722;8.612;2023-03-31T16:58:13;10.40;;;2.07;;
5722;SDS011;2886;49.722;8.612;2023-03-31T17:00:39;3.60;;;1.83;;
5722;SDS011;2886;49.722;8.612;2023-03-31T17:03:06;3.63;;;1.90;;
5722;SDS011;2886;49.722;8.612;2023-03-31T17:05:37;5.00;;;1.53;;
5722;SDS011;2886;49.722;8.612;2023-03-31T17:08:05;2.10;;;1.43;;
5722;SDS011;2886;49.722;8.612;2023-03-31T17:10:32;2.93;;;1.10;;
5722;SDS011;2886;49.722;8.612;2023-03-31T17:12:59;2.80;;;1.43;;
5722;SDS011;2886;49.722;8.612;2023-03-31T17:15:24;6.87;;;1.67;;
5722;SDS011;2886;49.722;8.612;2023-03-31T17:17:50;7.33;;;1.90;;
5722;SDS011;2886;49.722;8.612;2023-03-31T17:20:16;4.47;;;1.70;;
5722;SDS011;2886;49.722;8.612;2023-03-31T17:22:42;3.30;;;1.60;;
5722;SDS011;2886;49.722;8.612;2023-03-31T17:25:08;5.87;;;1.90;;
5722;SDS011;2886;49.722;8.612;2023-03-31T17:27:34;7.93;;;1.60;;
5722;SDS011;2886;49.722;8.612;2023-03-31T17:30:00;4.30;;;1.20;;
5722;SDS011;2886;49.722;8.612;2023-03-31T17:32:26;4.00;;;1.73;;
5722;SDS011;2886;49.722;8.612;2023-03-31T17:34:52;1.63;;;1.10;;
5722;SDS011;2886;49.722;8.612;2023-03-31T17:37:18;10.33;;;2.10;;
5722;SDS011;2886;49.722;8.612;2023-03-31T17:39:44;5.50;;;1.80;;
5722;SDS011;2886;49.722;8.612;2023-03-31T17:42:10;1.40;;;1.20;;
5722;SDS011;2886;49.722;8.612;2023-03-31T17:44:38;3.53;;;1.50;;
5722;SDS011;2886;49.722;8.612;2023-03-31T17:47:05;5.50;;;1.93;;
5722;SDS011;2886;49.722;8.612;2023-03-31T17:49:31;2.43;;;1.20;;
5722;SDS011;2886;49.722;8.612;2023-03-31T17:51:57;4.40;;;1.40;;
5722;SDS011;2886;49.722;8.612;2023-03-31T17:54:23;4.80;;;1.50;;
5722;SDS011;2886;49.722;8.612;2023-03-31T17:56:49;2.27;;;1.10;;
5722;SDS011;2886;49.722;8.612;2023-03-31T17:59:15;3.03;;;1.20;;
5722;SDS011;2886;49.722;8.612;2023-03-31T18:01:42;3.83;;;1.47;;
5722;SDS011;2886;49.722;8.612;2023-03-31T18:04:08;3.70;;;1.70;;
5722;SDS011;2886;49.722;8.612;2023-03-31T18:06:34;4.37;;;1.67;;
5722;SDS011;2886;49.722;8.612;2023-03-31T18:09:00;3.50;;;1.80;;
5722;SDS011;2886;49.722;8.612;2023-03-31T18:11:26;4.90;;;1.70;;
5722;SDS011;2886;49.722;8.612;2023-03-31T18:13:52;4.03;;;1.40;;
5722;SDS011;2886;49.722;8.612;2023-03-31T18:16:18;5.40;;;1.33;;
5722;SDS011;2886;49.722;8.612;2023-03-31T18:18:43;3.47;;;1.40;;
5722;SDS011;2886;49.722;8.612;2023-03-31T18:21:10;5.00;;;1.30;;
5722;SDS011;2886;49.722;8.612;2023-03-31T18:23:37;5.70;;;1.60;;
5722;SDS011;2886;49.722;8.612;2023-03-31T18:26:10;11.70;;;1.20;;
5722;SDS011;2886;49.722;8.612;2023-03-31T18:28:38;2.10;;;1.37;;
5722;SDS011;2886;49.722;8.612;2023-03-31T18:31:08;4.17;;;1.60;;
5722;SDS011;2886;49.722;8.612;2023-03-31T18:33:34;2.27;;;0.97;;
5722;SDS011;2886;49.722;8.612;2023-03-31T18:36:01;1.00;;;0.90;;